F/V Fleur Des Vagues — FPEJ — position and weather

sailwx.info

Track history (hours):
 
Tides and Currents Weather Stations Pressure Air Temp Water Temp Dewpoint Dewpoint Depression Visibility Wind Speed Wind Dir Waves Ship Positions

F/V Fleur Des Vagues

Last reported at 2017-Apr-20 11:27 UTC. Time now 2017-Apr-25 22:23 UTC.
Position N 46°30' W 001°47'.

Length 16 m.

Type: Fishing. MMSI: 227893000.

Date/timePositionNaut miles runAvg speedWind from/ knotsBaromVisibWave heightAir tempDewpointWater temp
2017-Apr-20 11:27N 46°30' W 001°47'2 5.3
2017-Apr-20 11:00N 46°28' W 001°47'4 7.5
2017-Apr-20 10:30N 46°24' W 001°47'4 7.2
2017-Apr-20 10:00N 46°20' W 001°47'3 6.9
2017-Apr-20 09:30N 46°17' W 001°47'2 3.6
2017-Apr-20 09:00N 46°15' W 001°46'1 1.1
2017-Apr-20 08:30N 46°16' W 001°46'2 1.3
2017-Apr-20 07:04N 46°14' W 001°45'1 1.6
2017-Apr-20 06:38N 46°15' W 001°46'0 0.9
2017-Apr-20 06:13N 46°14' W 001°46'0 2.3
2017-Apr-20 06:00N 46°15' W 001°46'1 1.8
2017-Apr-20 05:27N 46°15' W 001°45'1 2.3
2017-Apr-20 04:53N 46°14' W 001°44'0 1.1
2017-Apr-20 04:30N 46°13' W 001°43'1 2.7
2017-Apr-20 04:00N 46°15' W 001°44'5 7.4
2017-Apr-20 03:24N 46°19' W 001°45'3 7.5
2017-Apr-20 03:00N 46°22' W 001°46'4 7.6
2017-Apr-20 02:30N 46°26' W 001°47'4 7.4
2017-Apr-20 02:00N 46°29' W 001°47'1 1.0
2017-Apr-20 01:28N 46°30' W 001°47'0 0.0
2017-Apr-20 00:58N 46°30' W 001°47'0 0.0
2017-Apr-20 00:28N 46°30' W 001°47'0 0.0
2017-Apr-19 23:58N 46°30' W 001°47'0 0.0
2017-Apr-19 23:28N 46°30' W 001°47'0 0.0
2017-Apr-19 22:58N 46°30' W 001°47'0 0.0
2017-Apr-19 22:28N 46°30' W 001°47'0 0.0
2017-Apr-19 21:58N 46°30' W 001°47'0 0.0
2017-Apr-19 21:28N 46°30' W 001°47'0 0.0
2017-Apr-19 20:58N 46°30' W 001°47'0 0.0
2017-Apr-19 20:28N 46°30' W 001°47'0 0.0
2017-Apr-19 19:58N 46°30' W 001°47'0 0.0
2017-Apr-19 19:28N 46°30' W 001°47'0 0.0
2017-Apr-19 18:58N 46°30' W 001°47'0 0.0
2017-Apr-19 18:28N 46°30' W 001°47'0 0.0
2017-Apr-19 17:58N 46°30' W 001°47'0 0.0
2017-Apr-19 17:28N 46°30' W 001°47'0 0.0
2017-Apr-19 16:58N 46°30' W 001°47'0 0.0
2017-Apr-19 16:28N 46°30' W 001°47'0 0.0
2017-Apr-19 15:58N 46°30' W 001°47'0 0.0
2017-Apr-19 15:28N 46°30' W 001°47'0 0.0
2017-Apr-19 14:58N 46°30' W 001°47'0 0.0
2017-Apr-19 14:28N 46°30' W 001°47'0 0.0
2017-Apr-19 13:25N 46°30' W 001°47'0 0.0
2017-Apr-19 12:58N 46°30' W 001°47'0 0.9
2017-Apr-19 12:30N 46°30' W 001°48'4 7.6
2017-Apr-19 12:00N 46°26' W 001°47'4 7.9
2017-Apr-19 11:30N 46°22' W 001°47'4 7.8
2017-Apr-19 11:00N 46°18' W 001°47'3 6.4
2017-Apr-19 10:30N 46°15' W 001°46'1 2.1
2017-Apr-19 09:58N 46°16' W 001°47'1 2.4
2017-Apr-19 09:26N 46°15' W 001°46'0 0.4
2017-Apr-19 08:28N 46°15' W 001°46'0 0.7
2017-Apr-19 08:00N 46°14' W 001°46'0 0.6
2017-Apr-19 07:15N 46°14' W 001°45'1 0.6
2017-Apr-19 06:17N 46°14' W 001°44'1 2.2
2017-Apr-19 06:00N 46°14' W 001°44'2 2.2
2017-Apr-19 05:18N 46°15' W 001°45'1 1.1
2017-Apr-19 04:39N 46°15' W 001°45'1 2.1
2017-Apr-19 04:13N 46°14' W 001°44'0 1.1
2017-Apr-19 03:58N 46°14' W 001°44'0 0.5
2017-Apr-19 03:14N 46°14' W 001°44'0 0.5
2017-Apr-19 03:00N 46°14' W 001°44'5 7.7
2017-Apr-19 02:23N 46°19' W 001°45'3 7.8
2017-Apr-19 02:00N 46°22' W 001°46'4 7.8
2017-Apr-19 01:30N 46°26' W 001°47'4 7.4
2017-Apr-19 01:00N 46°30' W 001°48'0 0.8
2017-Apr-19 00:30N 46°30' W 001°47'0 0.0
2017-Apr-19 00:00N 46°30' W 001°47'0 0.0
2017-Apr-18 23:30N 46°30' W 001°47'0 0.0
2017-Apr-18 23:00N 46°30' W 001°47'0 0.0
2017-Apr-18 22:30N 46°30' W 001°47'0 0.0
2017-Apr-18 22:00N 46°30' W 001°47'0 0.0
2017-Apr-18 21:30N 46°30' W 001°47'0 0.0
2017-Apr-18 21:00N 46°30' W 001°47'0 0.0
2017-Apr-18 20:30N 46°30' W 001°47'0 0.0
2017-Apr-18 20:00N 46°30' W 001°47'0 0.0
2017-Apr-18 19:30N 46°30' W 001°47'0 0.0
2017-Apr-18 19:00N 46°30' W 001°47'0 0.0
2017-Apr-18 18:30N 46°30' W 001°47'0 0.0
2017-Apr-18 18:00N 46°30' W 001°47'0 0.0
2017-Apr-18 17:30N 46°30' W 001°47'0 0.0
2017-Apr-18 17:00N 46°30' W 001°47'0 0.0
2017-Apr-18 16:30N 46°30' W 001°47'0 0.0
2017-Apr-18 16:00N 46°30' W 001°47'0 0.0
2017-Apr-18 15:30N 46°30' W 001°47'0 0.0
2017-Apr-18 14:54N 46°30' W 001°47'0 0.0
2017-Apr-18 14:30N 46°30' W 001°47'0 0.0
2017-Apr-18 13:30N 46°30' W 001°47'0 0.0
2017-Apr-18 13:00N 46°30' W 001°47'0 0.0
2017-Apr-18 12:30N 46°30' W 001°47'0 0.0
2017-Apr-18 12:00N 46°30' W 001°47'1 2.6
2017-Apr-18 11:29N 46°29' W 001°47'5 8.0
2017-Apr-18 10:49N 46°23' W 001°46'2 7.8
2017-Apr-18 10:30N 46°21' W 001°46'6 7.6
2017-Apr-18 09:42N 46°15' W 001°44'0 1.3
2017-Apr-18 09:23N 46°15' W 001°44'2 6.0
2017-Apr-18 08:59N 46°16' W 001°47'2 4.2
2017-Apr-18 08:26N 46°14' W 001°45'1 1.8
2017-Apr-18 07:44N 46°15' W 001°46'1 2.3
2017-Apr-18 07:30N 46°16' W 001°46'1 2.1
2017-Apr-18 07:00N 46°17' W 001°47'1 2.3
2017-Apr-18 06:31N 46°15' W 001°47'1 2.5
2017-Apr-18 06:00N 46°14' W 001°46'1 1.4
2017-Apr-18 05:31N 46°14' W 001°45'0 0.5
2017-Apr-18 04:37N 46°14' W 001°45'2 6.7
2017-Apr-18 04:22N 46°16' W 001°46'1 3.7
2017-Apr-18 04:00N 46°17' W 001°47'1 2.4
2017-Apr-18 03:29N 46°16' W 001°46'2 4.0
2017-Apr-18 03:00N 46°14' W 001°44'3 4.7
2017-Apr-18 02:26N 46°12' W 001°42'0 0.3
2017-Apr-18 01:51N 46°12' W 001°41'0 0.5
2017-Apr-18 01:30N 46°12' W 001°41'1 1.2
2017-Apr-18 00:56N 46°13' W 001°42'1 1.6
2017-Apr-18 00:30N 46°13' W 001°43'2 0.2
2017-Apr-17 10:24N 46°14' W 001°45'1 1.4
2017-Apr-17 09:58N 46°14' W 001°46'2 1.0
2017-Apr-17 08:00N 46°14' W 001°43'4 7.4
2017-Apr-17 07:30N 46°17' W 001°47'4 7.4
2017-Apr-17 07:01N 46°20' W 001°49'4 8.0
2017-Apr-17 06:31N 46°24' W 001°48'4 8.1
2017-Apr-17 06:01N 46°28' W 001°47'2 3.1
2017-Apr-17 05:28N 46°30' W 001°47'0 0.0
2017-Apr-17 04:58N 46°30' W 001°47'0 0.0
2017-Apr-17 04:28N 46°30' W 001°47'0 0.0
2017-Apr-17 03:58N 46°30' W 001°47'0 0.0
2017-Apr-17 03:28N 46°30' W 001°47'0 0.0
2017-Apr-17 02:58N 46°30' W 001°47'0 0.0
2017-Apr-17 02:28N 46°30' W 001°47'0 0.0
2017-Apr-17 01:58N 46°30' W 001°47'0 0.0
2017-Apr-17 01:28N 46°30' W 001°47'0 0.0
2017-Apr-17 00:58N 46°30' W 001°47'0 0.0
2017-Apr-17 00:28N 46°30' W 001°47'0 0.0
2017-Apr-16 23:58N 46°30' W 001°47'0 0.0
2017-Apr-16 23:28N 46°30' W 001°47'0 0.0
2017-Apr-16 22:58N 46°30' W 001°47'0 0.0
2017-Apr-16 22:28N 46°30' W 001°47'0 0.0
2017-Apr-16 21:58N 46°30' W 001°47'0 0.0
2017-Apr-16 21:28N 46°30' W 001°47'0 0.0
2017-Apr-16 20:58N 46°30' W 001°47'0 0.0
2017-Apr-16 20:28N 46°30' W 001°47'0 0.0
2017-Apr-16 19:58N 46°30' W 001°47'0 0.0
2017-Apr-16 19:28N 46°30' W 001°47'0 0.0
2017-Apr-16 18:58N 46°30' W 001°47'0 0.0
2017-Apr-16 18:28N 46°30' W 001°47'0 0.0
2017-Apr-16 17:58N 46°30' W 001°47'0 0.0
2017-Apr-16 17:28N 46°30' W 001°47'0 0.0
2017-Apr-16 16:58N 46°30' W 001°47'0 0.0
2017-Apr-16 16:28N 46°30' W 001°47'0 0.0
2017-Apr-16 15:58N 46°30' W 001°47'0 0.0
2017-Apr-16 15:28N 46°30' W 001°47'0 0.0
2017-Apr-16 14:58N 46°30' W 001°47'0 0.0
2017-Apr-16 13:58N 46°30' W 001°47'0 0.0
2017-Apr-16 13:28N 46°30' W 001°47'0 0.0
2017-Apr-16 12:58N 46°30' W 001°47'0 0.0
2017-Apr-16 12:28N 46°30' W 001°47'0 0.0
2017-Apr-16 11:58N 46°30' W 001°47'0 0.0
2017-Apr-16 11:28N 46°30' W 001°47'0 0.0
2017-Apr-16 10:58N 46°30' W 001°47'0 0.0
2017-Apr-16 10:28N 46°30' W 001°47'0 0.0
2017-Apr-16 09:58N 46°30' W 001°47'0 0.0
2017-Apr-16 09:28N 46°30' W 001°47'0 0.0
2017-Apr-16 08:58N 46°30' W 001°47'0 0.0
2017-Apr-16 08:28N 46°30' W 001°47'0 0.0
2017-Apr-16 07:58N 46°30' W 001°47'0 0.0
2017-Apr-16 07:28N 46°30' W 001°47'0 0.0
2017-Apr-16 06:58N 46°30' W 001°47'0 0.0
2017-Apr-16 06:28N 46°30' W 001°47'0 0.0
2017-Apr-16 05:58N 46°30' W 001°47'0 0.0
2017-Apr-16 05:28N 46°30' W 001°47'0 0.0
2017-Apr-16 04:58N 46°30' W 001°47'0 0.0
2017-Apr-16 04:28N 46°30' W 001°47'0 0.0
2017-Apr-16 03:58N 46°30' W 001°47'0 0.0
2017-Apr-16 03:28N 46°30' W 001°47'0 0.0
2017-Apr-16 02:58N 46°30' W 001°47'0 0.0
2017-Apr-16 02:28N 46°30' W 001°47'0 0.0
2017-Apr-16 01:58N 46°30' W 001°47'0 0.0
2017-Apr-16 01:28N 46°30' W 001°47'0 0.0
2017-Apr-16 00:58N 46°30' W 001°47'0 0.0
2017-Apr-16 00:28N 46°30' W 001°47'0 0.0
2017-Apr-15 23:58N 46°30' W 001°47'0 0.0
2017-Apr-15 23:28N 46°30' W 001°47'0 0.0
2017-Apr-15 22:58N 46°30' W 001°47'0 0.0
2017-Apr-15 22:28N 46°30' W 001°47'0 0.0
2017-Apr-15 21:58N 46°30' W 001°47'0 0.0
2017-Apr-15 21:28N 46°30' W 001°47'0 0.0
2017-Apr-15 20:58N 46°30' W 001°47'0 0.0
2017-Apr-15 20:28N 46°30' W 001°47'0 0.0
2017-Apr-15 19:58N 46°30' W 001°47'0 0.0
2017-Apr-15 19:28N 46°30' W 001°47'0 0.0
2017-Apr-15 18:58N 46°30' W 001°47'0 0.0
2017-Apr-15 18:28N 46°30' W 001°47'0 0.0
2017-Apr-15 17:58N 46°30' W 001°47'0 0.0
2017-Apr-15 17:28N 46°30' W 001°47'0 0.0
2017-Apr-15 16:58N 46°30' W 001°47'0 0.0
2017-Apr-15 16:28N 46°30' W 001°47'0 0.0
2017-Apr-15 15:55N 46°30' W 001°47'0 0.0
2017-Apr-15 15:28N 46°30' W 001°47'0 0.0
2017-Apr-15 14:58N 46°30' W 001°47'0 0.0
2017-Apr-15 13:58N 46°30' W 001°47'0 0.6
2017-Apr-15 13:30N 46°30' W 001°48'3 6.7
2017-Apr-15 13:01N 46°27' W 001°48'4 7.3
2017-Apr-15 12:31N 46°23' W 001°49'4 7.2
2017-Apr-15 12:00N 46°19' W 001°49'3 6.8
2017-Apr-15 11:31N 46°16' W 001°50'2 2.9
2017-Apr-15 10:59N 46°15' W 001°50'1 2.0
2017-Apr-15 10:28N 46°15' W 001°49'1 3.1
2017-Apr-15 10:00N 46°14' W 001°51'1 2.5
2017-Apr-15 09:30N 46°15' W 001°49'0 0.7
2017-Apr-15 09:00N 46°15' W 001°48'1 1.4
2017-Apr-15 08:28N 46°14' W 001°49'1 1.4
2017-Apr-15 08:00N 46°14' W 001°48'2 4.7
2017-Apr-15 07:30N 46°16' W 001°50'1 1.5
2017-Apr-15 07:00N 46°15' W 001°49'1 1.4
2017-Apr-15 06:30N 46°16' W 001°50'1 1.4
2017-Apr-15 06:00N 46°15' W 001°49'1 1.9
2017-Apr-15 05:31N 46°16' W 001°50'2 3.3
2017-Apr-15 04:59N 46°15' W 001°52'0 0.4
2017-Apr-15 04:29N 46°15' W 001°52'0 0.5
2017-Apr-15 04:00N 46°15' W 001°52'4 7.4
2017-Apr-15 03:30N 46°19' W 001°51'4 7.8
2017-Apr-15 03:00N 46°23' W 001°49'4 7.8
2017-Apr-15 02:30N 46°27' W 001°48'3 6.7
2017-Apr-15 02:00N 46°30' W 001°48'0 0.7
2017-Apr-15 01:30N 46°30' W 001°47'0 0.0
2017-Apr-15 01:00N 46°30' W 001°47'0 0.0
2017-Apr-15 00:30N 46°30' W 001°47'0 0.0
2017-Apr-15 00:00N 46°30' W 001°47'0 0.0
2017-Apr-14 23:30N 46°30' W 001°47'0 0.0
2017-Apr-14 23:00N 46°30' W 001°47'0 0.0
2017-Apr-14 22:30N 46°30' W 001°47'0 0.0
2017-Apr-14 22:00N 46°30' W 001°47'0 0.0
2017-Apr-14 21:30N 46°30' W 001°47'0 0.0
2017-Apr-14 20:54N 46°30' W 001°47'0 0.0
2017-Apr-14 20:30N 46°30' W 001°47'0 0.0
2017-Apr-14 20:00N 46°30' W 001°47'0 0.0
2017-Apr-14 19:30N 46°30' W 001°47'0 0.0
2017-Apr-14 19:00N 46°30' W 001°47'0 0.0
2017-Apr-14 18:30N 46°30' W 001°47'0 0.0
2017-Apr-14 18:00N 46°30' W 001°47'0 0.0
2017-Apr-14 17:30N 46°30' W 001°47'0 0.0
2017-Apr-14 17:00N 46°30' W 001°47'0 0.0
2017-Apr-14 16:30N 46°30' W 001°47'0 0.0
2017-Apr-14 16:00N 46°30' W 001°47'0 0.0
2017-Apr-14 15:30N 46°30' W 001°47'0 0.0
2017-Apr-14 15:00N 46°30' W 001°47'0 0.0
2017-Apr-14 14:00N 46°30' W 001°47'0 0.0
2017-Apr-14 13:30N 46°30' W 001°47'2 3.3
2017-Apr-14 13:00N 46°28' W 001°47'4 8.0
2017-Apr-14 12:30N 46°24' W 001°48'4 7.9
2017-Apr-14 12:00N 46°20' W 001°49'4 7.7
2017-Apr-14 11:30N 46°17' W 001°50'2 4.5
2017-Apr-14 11:00N 46°15' W 001°49'1 2.3
2017-Apr-14 10:29N 46°14' W 001°51'1 2.7
2017-Apr-14 10:00N 46°15' W 001°49'0 1.0
2017-Apr-14 09:30N 46°14' W 001°49'0 0.2
2017-Apr-14 08:56N 46°14' W 001°49'1 1.8
2017-Apr-14 08:30N 46°14' W 001°50'1 1.3
2017-Apr-14 07:56N 46°15' W 001°51'1 2.0
2017-Apr-14 07:28N 46°15' W 001°52'1 1.9
2017-Apr-14 07:00N 46°15' W 001°51'1 1.4
2017-Apr-14 06:30N 46°15' W 001°52'1 2.6
2017-Apr-14 06:00N 46°15' W 001°50'0 0.6
2017-Apr-14 05:30N 46°15' W 001°49'0 0.9
2017-Apr-14 04:58N 46°16' W 001°50'0 0.6
2017-Apr-14 04:28N 46°16' W 001°50'1 2.3
2017-Apr-14 03:56N 46°15' W 001°52'3 6.7
2017-Apr-14 03:30N 46°18' W 001°51'4 8.0
2017-Apr-14 03:00N 46°22' W 001°50'4 8.0
2017-Apr-14 02:30N 46°26' W 001°48'4 7.7
2017-Apr-14 02:00N 46°30' W 001°48'0 0.6
2017-Apr-14 01:15N 46°30' W 001°47'0 0.0
2017-Apr-14 00:57N 46°30' W 001°47'0 0.0
2017-Apr-14 00:27N 46°30' W 001°47'0 0.0
2017-Apr-13 23:57N 46°30' W 001°47'0 0.0
2017-Apr-13 23:24N 46°30' W 001°47'0 0.0
2017-Apr-13 23:00N 46°30' W 001°47'0 0.0
2017-Apr-13 22:27N 46°30' W 001°47'0 0.0
2017-Apr-13 22:00N 46°30' W 001°47'0 0.0
2017-Apr-13 21:24N 46°30' W 001°47'0 0.0
2017-Apr-13 20:57N 46°30' W 001°47'0 0.0
2017-Apr-13 20:30N 46°30' W 001°47'0 0.0
2017-Apr-13 19:51N 46°30' W 001°47'0 0.0
2017-Apr-13 19:30N 46°30' W 001°47'0 0.0
2017-Apr-13 19:00N 46°30' W 001°47'0 0.0
2017-Apr-13 18:27N 46°30' W 001°47'0 0.0
2017-Apr-13 17:57N 46°30' W 001°47'0 0.0
2017-Apr-13 17:12N 46°30' W 001°47'0 0.0
2017-Apr-13 17:00N 46°30' W 001°47'0 0.0
2017-Apr-13 16:24N 46°30' W 001°47'0 0.0
2017-Apr-13 16:00N 46°30' W 001°47'0 0.0
2017-Apr-13 15:30N 46°30' W 001°47'2 3.5
2017-Apr-13 15:00N 46°28' W 001°47'4 7.7
2017-Apr-13 14:30N 46°24' W 001°48'8 8.0
2017-Apr-13 13:30N 46°16' W 001°50'2 4.2
2017-Apr-13 13:00N 46°15' W 001°48'2 3.1
2017-Apr-13 12:30N 46°15' W 001°50'1 1.2
2017-Apr-13 12:00N 46°15' W 001°51'1 2.3
2017-Apr-13 11:30N 46°16' W 001°52'4 8.0
2017-Apr-13 11:00N 46°20' W 001°54'4 8.1
2017-Apr-13 10:30N 46°23' W 001°55'4 8.0
2017-Apr-13 10:00N 46°27' W 001°56'3 5.3
2017-Apr-13 09:30N 46°30' W 001°57'0 0.3
2017-Apr-13 09:00N 46°30' W 001°57'0 0.4
2017-Apr-13 08:30N 46°30' W 001°57'0 0.8
2017-Apr-13 08:00N 46°30' W 001°56'0 0.8
2017-Apr-13 07:31N 46°30' W 001°56'3 6.2
2017-Apr-13 07:00N 46°33' W 001°58'1 2.5
2017-Apr-13 06:31N 46°34' W 001°59'1 1.3
2017-Apr-13 06:00N 46°34' W 001°58'1 1.4
2017-Apr-13 05:27N 46°33' W 001°58'0 0.7
2017-Apr-13 05:00N 46°33' W 001°57'1 2.1
2017-Apr-13 04:28N 46°34' W 001°59'0 0.8
2017-Apr-13 04:00N 46°34' W 001°58'1 2.4
2017-Apr-13 03:30N 46°34' W 001°57'2 5.0
2017-Apr-13 03:00N 46°32' W 001°55'4 7.6
2017-Apr-13 02:30N 46°29' W 001°51'3 5.4
2017-Apr-13 02:00N 46°29' W 001°47'1 0.9
2017-Apr-13 01:23N 46°30' W 001°47'0 0.0
2017-Apr-13 00:59N 46°30' W 001°47'0 0.0
2017-Apr-13 00:29N 46°30' W 001°47'0 0.0
2017-Apr-12 23:59N 46°30' W 001°47'0 0.0
2017-Apr-12 23:29N 46°30' W 001°47'0 0.0
2017-Apr-12 22:59N 46°30' W 001°47'0 0.0
2017-Apr-12 22:29N 46°30' W 001°47'0 0.0
2017-Apr-12 21:59N 46°30' W 001°47'0 0.0
2017-Apr-12 21:08N 46°30' W 001°47'0 0.0
2017-Apr-12 20:59N 46°30' W 001°47'0 0.0
2017-Apr-12 20:29N 46°30' W 001°47'0 0.0
2017-Apr-12 19:56N 46°30' W 001°47'0 0.0
2017-Apr-12 19:29N 46°30' W 001°47'0 0.0
2017-Apr-12 18:56N 46°30' W 001°47'0 0.0
2017-Apr-12 18:26N 46°30' W 001°47'0 0.0
2017-Apr-12 17:44N 46°30' W 001°47'0 0.0
2017-Apr-12 17:26N 46°30' W 001°47'0 0.0
2017-Apr-12 16:56N 46°30' W 001°47'0 0.0
2017-Apr-12 16:23N 46°30' W 001°47'0 0.0
2017-Apr-12 15:59N 46°30' W 001°47'0 0.0
2017-Apr-12 15:29N 46°30' W 001°47'0 0.0
2017-Apr-12 14:59N 46°30' W 001°47'0 0.0
2017-Apr-12 14:29N 46°30' W 001°47'0 0.0
2017-Apr-12 13:29N 46°30' W 001°47'0 0.0
2017-Apr-12 12:59N 46°30' W 001°47'0 0.0
2017-Apr-12 12:30N 46°30' W 001°47'2 4.0
2017-Apr-12 12:00N 46°29' W 001°49'4 7.6
2017-Apr-12 11:30N 46°31' W 001°54'4 7.5
2017-Apr-12 11:00N 46°34' W 001°57'0 0.8
2017-Apr-12 10:30N 46°33' W 001°57'1 2.2
2017-Apr-12 10:00N 46°33' W 001°59'1 1.4
2017-Apr-12 09:30N 46°33' W 001°59'1 2.8
2017-Apr-12 09:00N 46°32' W 001°58'1 2.9
2017-Apr-12 08:30N 46°34' W 001°59'1 1.2
2017-Apr-12 07:56N 46°33' W 001°58'1 2.3
2017-Apr-12 07:30N 46°34' W 001°59'1 1.5
2017-Apr-12 06:57N 46°33' W 001°60'1 2.3
2017-Apr-12 06:30N 46°32' W 001°59'2 4.9
2017-Apr-12 06:00N 46°30' W 001°57'0 0.3
2017-Apr-12 05:30N 46°30' W 001°58'0 0.2
2017-Apr-12 05:00N 46°30' W 001°57'1 1.5
2017-Apr-12 04:30N 46°29' W 001°57'0 0.2
2017-Apr-12 03:59N 46°30' W 001°57'0 0.3
2017-Apr-12 03:29N 46°30' W 001°57'0 0.4
2017-Apr-12 03:00N 46°30' W 001°56'3 6.8
2017-Apr-12 02:30N 46°29' W 001°52'3 5.9
2017-Apr-12 02:00N 46°29' W 001°47'1 1.4
2017-Apr-12 01:30N 46°30' W 001°47'0 0.0
2017-Apr-12 01:00N 46°30' W 001°47'0 0.0
2017-Apr-12 00:30N 46°30' W 001°47'0 0.0
2017-Apr-12 00:00N 46°30' W 001°47'0 0.0
2017-Apr-11 23:30N 46°30' W 001°47'0 0.0
2017-Apr-11 23:00N 46°30' W 001°47'0 0.0
2017-Apr-11 22:30N 46°30' W 001°47'0 0.0
2017-Apr-11 22:00N 46°30' W 001°47'0 0.0
2017-Apr-11 21:30N 46°30' W 001°47'0 0.0
2017-Apr-11 21:00N 46°30' W 001°47'0 0.0
2017-Apr-11 20:30N 46°30' W 001°47'0 0.0
2017-Apr-11 20:00N 46°30' W 001°47'0 0.0
2017-Apr-11 19:30N 46°30' W 001°47'0 0.0
2017-Apr-11 19:00N 46°30' W 001°47'0 0.0
2017-Apr-11 18:29N 46°30' W 001°47'0 0.0
2017-Apr-11 17:59N 46°30' W 001°47'0 0.0
2017-Apr-11 17:30N 46°30' W 001°47'0 0.0
2017-Apr-11 17:00N 46°30' W 001°47'0 0.0
2017-Apr-11 16:30N 46°30' W 001°47'0 0.0
2017-Apr-11 16:00N 46°30' W 001°47'0 0.0
2017-Apr-11 15:30N 46°30' W 001°47'0 0.0
2017-Apr-11 15:00N 46°30' W 001°47'0 0.0
2017-Apr-11 14:30N 46°30' W 001°47'0 0.0
2017-Apr-11 13:31N 46°30' W 001°47'2 4.3
2017-Apr-11 13:00N 46°29' W 001°50'4 8.3
2017-Apr-11 12:30N 46°31' W 001°55'4 8.3
2017-Apr-11 12:00N 46°33' W 001°60'1 1.4
2017-Apr-11 11:30N 46°33' W 001°59'1 1.7
2017-Apr-11 11:00N 46°33' W 001°58'1 2.6
2017-Apr-11 10:30N 46°33' W 001°59'1 2.1
2017-Apr-11 10:00N 46°32' W 001°59'1 3.0
2017-Apr-11 09:30N 46°34' W 001°59'1 2.0
2017-Apr-11 09:00N 46°33' W 001°59'1 1.6
2017-Apr-11 08:30N 46°33' W 001°60'0 0.5
2017-Apr-11 07:59N 46°33' W 001°60'1 2.1
2017-Apr-11 07:30N 46°32' W 001°59'1 2.6
2017-Apr-11 06:58N 46°31' W 001°59'1 2.1
2017-Apr-11 06:31N 46°30' W 001°59'1 1.9
2017-Apr-11 06:01N 46°30' W 001°58'0 0.4
2017-Apr-11 05:30N 46°30' W 001°57'0 0.3
2017-Apr-11 05:00N 46°30' W 001°57'1 2.1
2017-Apr-11 04:30N 46°29' W 001°56'0 0.2
2017-Apr-11 04:00N 46°29' W 001°56'0 0.5
2017-Apr-11 03:30N 46°30' W 001°56'0 0.4
2017-Apr-11 03:00N 46°30' W 001°56'4 7.6
2017-Apr-11 02:30N 46°29' W 001°51'2 4.7
2017-Apr-11 02:00N 46°30' W 001°48'0 0.8
2017-Apr-11 01:28N 46°30' W 001°47'0 0.0
2017-Apr-11 00:58N 46°30' W 001°47'0 0.0
2017-Apr-11 00:28N 46°30' W 001°47'0 0.0
2017-Apr-10 23:58N 46°30' W 001°47'0 0.0
2017-Apr-10 23:28N 46°30' W 001°47'0 0.0
2017-Apr-10 22:58N 46°30' W 001°47'0 0.0
2017-Apr-10 22:28N 46°30' W 001°47'0 0.0
2017-Apr-10 21:58N 46°30' W 001°47'0 0.0
2017-Apr-10 21:28N 46°30' W 001°47'0 0.0
2017-Apr-10 20:58N 46°30' W 001°47'0 0.0
2017-Apr-10 20:28N 46°30' W 001°47'0 0.0
2017-Apr-10 19:58N 46°30' W 001°47'0 0.0
2017-Apr-10 19:28N 46°30' W 001°47'0 0.0
2017-Apr-10 18:58N 46°30' W 001°47'0 0.0
2017-Apr-10 18:28N 46°30' W 001°47'0 0.0
2017-Apr-10 17:58N 46°30' W 001°47'0 0.0
2017-Apr-10 17:28N 46°30' W 001°47'0 0.0
2017-Apr-10 16:58N 46°30' W 001°47'0 0.0
2017-Apr-10 16:28N 46°30' W 001°47'0 0.0
2017-Apr-10 15:58N 46°30' W 001°47'0 0.0
2017-Apr-10 15:28N 46°30' W 001°47'0 0.0
2017-Apr-10 14:58N 46°30' W 001°47'0 0.0
2017-Apr-10 13:58N 46°30' W 001°47'0 0.0
2017-Apr-10 13:29N 46°30' W 001°47'2 3.6
2017-Apr-10 13:01N 46°28' W 001°48'4 8.0
2017-Apr-10 12:31N 46°30' W 001°53'4 8.0
2017-Apr-10 12:01N 46°33' W 001°58'1 2.4
2017-Apr-10 11:31N 46°32' W 001°59'  
Track history (hours):
 
Tides and Currents Weather Stations Pressure Air Temp Water Temp Dewpoint Dewpoint Depression Visibility Wind Speed Wind Dir Waves Ship Positions

F/V Fleur Des Vagues

Last reported at 2017-Apr-20 11:27 UTC. Time now 2017-Apr-25 22:23 UTC.
Position N 46°30' W 001°47'.

Length 16 m.

Type: Fishing. MMSI: 227893000.

Date/timePositionNaut miles runAvg speedWind from/ knotsBaromVisibWave heightAir tempDewpointWater temp
2017-Apr-20 11:27N 46°30' W 001°47'2 5.3
2017-Apr-20 11:00N 46°28' W 001°47'4 7.5
2017-Apr-20 10:30N 46°24' W 001°47'4 7.2
2017-Apr-20 10:00N 46°20' W 001°47'3 6.9
2017-Apr-20 09:30N 46°17' W 001°47'2 3.6
2017-Apr-20 09:00N 46°15' W 001°46'1 1.1
2017-Apr-20 08:30N 46°16' W 001°46'2 1.3
2017-Apr-20 07:04N 46°14' W 001°45'1 1.6
2017-Apr-20 06:38N 46°15' W 001°46'0 0.9
2017-Apr-20 06:13N 46°14' W 001°46'0 2.3
2017-Apr-20 06:00N 46°15' W 001°46'1 1.8
2017-Apr-20 05:27N 46°15' W 001°45'1 2.3
2017-Apr-20 04:53N 46°14' W 001°44'0 1.1
2017-Apr-20 04:30N 46°13' W 001°43'1 2.7
2017-Apr-20 04:00N 46°15' W 001°44'5 7.4
2017-Apr-20 03:24N 46°19' W 001°45'3 7.5
2017-Apr-20 03:00N 46°22' W 001°46'4 7.6
2017-Apr-20 02:30N 46°26' W 001°47'4 7.4
2017-Apr-20 02:00N 46°29' W 001°47'1 1.0
2017-Apr-20 01:28N 46°30' W 001°47'0 0.0
2017-Apr-20 00:58N 46°30' W 001°47'0 0.0
2017-Apr-20 00:28N 46°30' W 001°47'0 0.0
2017-Apr-19 23:58N 46°30' W 001°47'0 0.0
2017-Apr-19 23:28N 46°30' W 001°47'0 0.0
2017-Apr-19 22:58N 46°30' W 001°47'0 0.0
2017-Apr-19 22:28N 46°30' W 001°47'0 0.0
2017-Apr-19 21:58N 46°30' W 001°47'0 0.0
2017-Apr-19 21:28N 46°30' W 001°47'0 0.0
2017-Apr-19 20:58N 46°30' W 001°47'0 0.0
2017-Apr-19 20:28N 46°30' W 001°47'0 0.0
2017-Apr-19 19:58N 46°30' W 001°47'0 0.0
2017-Apr-19 19:28N 46°30' W 001°47'0 0.0
2017-Apr-19 18:58N 46°30' W 001°47'0 0.0
2017-Apr-19 18:28N 46°30' W 001°47'0 0.0
2017-Apr-19 17:58N 46°30' W 001°47'0 0.0
2017-Apr-19 17:28N 46°30' W 001°47'0 0.0
2017-Apr-19 16:58N 46°30' W 001°47'0 0.0
2017-Apr-19 16:28N 46°30' W 001°47'0 0.0
2017-Apr-19 15:58N 46°30' W 001°47'0 0.0
2017-Apr-19 15:28N 46°30' W 001°47'0 0.0
2017-Apr-19 14:58N 46°30' W 001°47'0 0.0
2017-Apr-19 14:28N 46°30' W 001°47'0 0.0
2017-Apr-19 13:25N 46°30' W 001°47'0 0.0
2017-Apr-19 12:58N 46°30' W 001°47'0 0.9
2017-Apr-19 12:30N 46°30' W 001°48'4 7.6
2017-Apr-19 12:00N 46°26' W 001°47'4 7.9
2017-Apr-19 11:30N 46°22' W 001°47'4 7.8
2017-Apr-19 11:00N 46°18' W 001°47'3 6.4
2017-Apr-19 10:30N 46°15' W 001°46'1 2.1
2017-Apr-19 09:58N 46°16' W 001°47'1 2.4
2017-Apr-19 09:26N 46°15' W 001°46'0 0.4
2017-Apr-19 08:28N 46°15' W 001°46'0 0.7
2017-Apr-19 08:00N 46°14' W 001°46'0 0.6
2017-Apr-19 07:15N 46°14' W 001°45'1 0.6
2017-Apr-19 06:17N 46°14' W 001°44'1 2.2
2017-Apr-19 06:00N 46°14' W 001°44'2 2.2
2017-Apr-19 05:18N 46°15' W 001°45'1 1.1
2017-Apr-19 04:39N 46°15' W 001°45'1 2.1
2017-Apr-19 04:13N 46°14' W 001°44'0 1.1
2017-Apr-19 03:58N 46°14' W 001°44'0 0.5
2017-Apr-19 03:14N 46°14' W 001°44'0 0.5
2017-Apr-19 03:00N 46°14' W 001°44'5 7.7
2017-Apr-19 02:23N 46°19' W 001°45'3 7.8
2017-Apr-19 02:00N 46°22' W 001°46'4 7.8
2017-Apr-19 01:30N 46°26' W 001°47'4 7.4
2017-Apr-19 01:00N 46°30' W 001°48'0 0.8
2017-Apr-19 00:30N 46°30' W 001°47'0 0.0
2017-Apr-19 00:00N 46°30' W 001°47'0 0.0
2017-Apr-18 23:30N 46°30' W 001°47'0 0.0
2017-Apr-18 23:00N 46°30' W 001°47'0 0.0
2017-Apr-18 22:30N 46°30' W 001°47'0 0.0
2017-Apr-18 22:00N 46°30' W 001°47'0 0.0
2017-Apr-18 21:30N 46°30' W 001°47'0 0.0
2017-Apr-18 21:00N 46°30' W 001°47'0 0.0
2017-Apr-18 20:30N 46°30' W 001°47'0 0.0
2017-Apr-18 20:00N 46°30' W 001°47'0 0.0
2017-Apr-18 19:30N 46°30' W 001°47'0 0.0
2017-Apr-18 19:00N 46°30' W 001°47'0 0.0
2017-Apr-18 18:30N 46°30' W 001°47'0 0.0
2017-Apr-18 18:00N 46°30' W 001°47'0 0.0
2017-Apr-18 17:30N 46°30' W 001°47'0 0.0
2017-Apr-18 17:00N 46°30' W 001°47'0 0.0
2017-Apr-18 16:30N 46°30' W 001°47'0 0.0
2017-Apr-18 16:00N 46°30' W 001°47'0 0.0
2017-Apr-18 15:30N 46°30' W 001°47'0 0.0
2017-Apr-18 14:54N 46°30' W 001°47'0 0.0
2017-Apr-18 14:30N 46°30' W 001°47'0 0.0
2017-Apr-18 13:30N 46°30' W 001°47'0 0.0
2017-Apr-18 13:00N 46°30' W 001°47'0 0.0
2017-Apr-18 12:30N 46°30' W 001°47'0 0.0
2017-Apr-18 12:00N 46°30' W 001°47'1 2.6
2017-Apr-18 11:29N 46°29' W 001°47'5 8.0
2017-Apr-18 10:49N 46°23' W 001°46'2 7.8
2017-Apr-18 10:30N 46°21' W 001°46'6 7.6
2017-Apr-18 09:42N 46°15' W 001°44'0 1.3
2017-Apr-18 09:23N 46°15' W 001°44'2 6.0
2017-Apr-18 08:59N 46°16' W 001°47'2 4.2
2017-Apr-18 08:26N 46°14' W 001°45'1 1.8
2017-Apr-18 07:44N 46°15' W 001°46'1 2.3
2017-Apr-18 07:30N 46°16' W 001°46'1 2.1
2017-Apr-18 07:00N 46°17' W 001°47'1 2.3
2017-Apr-18 06:31N 46°15' W 001°47'1 2.5
2017-Apr-18 06:00N 46°14' W 001°46'1 1.4
2017-Apr-18 05:31N 46°14' W 001°45'0 0.5
2017-Apr-18 04:37N 46°14' W 001°45'2 6.7
2017-Apr-18 04:22N 46°16' W 001°46'1 3.7
2017-Apr-18 04:00N 46°17' W 001°47'1 2.4
2017-Apr-18 03:29N 46°16' W 001°46'2 4.0
2017-Apr-18 03:00N 46°14' W 001°44'3 4.7
2017-Apr-18 02:26N 46°12' W 001°42'0 0.3
2017-Apr-18 01:51N 46°12' W 001°41'0 0.5
2017-Apr-18 01:30N 46°12' W 001°41'1 1.2
2017-Apr-18 00:56N 46°13' W 001°42'1 1.6
2017-Apr-18 00:30N 46°13' W 001°43'2 0.2
2017-Apr-17 10:24N 46°14' W 001°45'1 1.4
2017-Apr-17 09:58N 46°14' W 001°46'2 1.0
2017-Apr-17 08:00N 46°14' W 001°43'4 7.4
2017-Apr-17 07:30N 46°17' W 001°47'4 7.4
2017-Apr-17 07:01N 46°20' W 001°49'4 8.0
2017-Apr-17 06:31N 46°24' W 001°48'4 8.1
2017-Apr-17 06:01N 46°28' W 001°47'2 3.1
2017-Apr-17 05:28N 46°30' W 001°47'0 0.0
2017-Apr-17 04:58N 46°30' W 001°47'0 0.0
2017-Apr-17 04:28N 46°30' W 001°47'0 0.0
2017-Apr-17 03:58N 46°30' W 001°47'0 0.0
2017-Apr-17 03:28N 46°30' W 001°47'0 0.0
2017-Apr-17 02:58N 46°30' W 001°47'0 0.0
2017-Apr-17 02:28N 46°30' W 001°47'0 0.0
2017-Apr-17 01:58N 46°30' W 001°47'0 0.0
2017-Apr-17 01:28N 46°30' W 001°47'0 0.0
2017-Apr-17 00:58N 46°30' W 001°47'0 0.0
2017-Apr-17 00:28N 46°30' W 001°47'0 0.0
2017-Apr-16 23:58N 46°30' W 001°47'0 0.0
2017-Apr-16 23:28N 46°30' W 001°47'0 0.0
2017-Apr-16 22:58N 46°30' W 001°47'0 0.0
2017-Apr-16 22:28N 46°30' W 001°47'0 0.0
2017-Apr-16 21:58N 46°30' W 001°47'0 0.0
2017-Apr-16 21:28N 46°30' W 001°47'0 0.0
2017-Apr-16 20:58N 46°30' W 001°47'0 0.0
2017-Apr-16 20:28N 46°30' W 001°47'0 0.0
2017-Apr-16 19:58N 46°30' W 001°47'0 0.0
2017-Apr-16 19:28N 46°30' W 001°47'0 0.0
2017-Apr-16 18:58N 46°30' W 001°47'0 0.0
2017-Apr-16 18:28N 46°30' W 001°47'0 0.0
2017-Apr-16 17:58N 46°30' W 001°47'0 0.0
2017-Apr-16 17:28N 46°30' W 001°47'0 0.0
2017-Apr-16 16:58N 46°30' W 001°47'0 0.0
2017-Apr-16 16:28N 46°30' W 001°47'0 0.0
2017-Apr-16 15:58N 46°30' W 001°47'0 0.0
2017-Apr-16 15:28N 46°30' W 001°47'0 0.0
2017-Apr-16 14:58N 46°30' W 001°47'0 0.0
2017-Apr-16 13:58N 46°30' W 001°47'0 0.0
2017-Apr-16 13:28N 46°30' W 001°47'0 0.0
2017-Apr-16 12:58N 46°30' W 001°47'0 0.0
2017-Apr-16 12:28N 46°30' W 001°47'0 0.0
2017-Apr-16 11:58N 46°30' W 001°47'0 0.0
2017-Apr-16 11:28N 46°30' W 001°47'0 0.0
2017-Apr-16 10:58N 46°30' W 001°47'0 0.0
2017-Apr-16 10:28N 46°30' W 001°47'0 0.0
2017-Apr-16 09:58N 46°30' W 001°47'0 0.0
2017-Apr-16 09:28N 46°30' W 001°47'0 0.0
2017-Apr-16 08:58N 46°30' W 001°47'0 0.0
2017-Apr-16 08:28N 46°30' W 001°47'0 0.0
2017-Apr-16 07:58N 46°30' W 001°47'0 0.0
2017-Apr-16 07:28N 46°30' W 001°47'0 0.0
2017-Apr-16 06:58N 46°30' W 001°47'0 0.0
2017-Apr-16 06:28N 46°30' W 001°47'0 0.0
2017-Apr-16 05:58N 46°30' W 001°47'0 0.0
2017-Apr-16 05:28N 46°30' W 001°47'0 0.0
2017-Apr-16 04:58N 46°30' W 001°47'0 0.0
2017-Apr-16 04:28N 46°30' W 001°47'0 0.0
2017-Apr-16 03:58N 46°30' W 001°47'0 0.0
2017-Apr-16 03:28N 46°30' W 001°47'0 0.0
2017-Apr-16 02:58N 46°30' W 001°47'0 0.0
2017-Apr-16 02:28N 46°30' W 001°47'0 0.0
2017-Apr-16 01:58N 46°30' W 001°47'0 0.0
2017-Apr-16 01:28N 46°30' W 001°47'0 0.0
2017-Apr-16 00:58N 46°30' W 001°47'0 0.0
2017-Apr-16 00:28N 46°30' W 001°47'0 0.0
2017-Apr-15 23:58N 46°30' W 001°47'0 0.0
2017-Apr-15 23:28N 46°30' W 001°47'0 0.0
2017-Apr-15 22:58N 46°30' W 001°47'0 0.0
2017-Apr-15 22:28N 46°30' W 001°47'0 0.0
2017-Apr-15 21:58N 46°30' W 001°47'0 0.0
2017-Apr-15 21:28N 46°30' W 001°47'0 0.0
2017-Apr-15 20:58N 46°30' W 001°47'0 0.0
2017-Apr-15 20:28N 46°30' W 001°47'0 0.0
2017-Apr-15 19:58N 46°30' W 001°47'0 0.0
2017-Apr-15 19:28N 46°30' W 001°47'0 0.0
2017-Apr-15 18:58N 46°30' W 001°47'0 0.0
2017-Apr-15 18:28N 46°30' W 001°47'0 0.0
2017-Apr-15 17:58N 46°30' W 001°47'0 0.0
2017-Apr-15 17:28N 46°30' W 001°47'0 0.0
2017-Apr-15 16:58N 46°30' W 001°47'0 0.0
2017-Apr-15 16:28N 46°30' W 001°47'0 0.0
2017-Apr-15 15:55N 46°30' W 001°47'0 0.0
2017-Apr-15 15:28N 46°30' W 001°47'0 0.0
2017-Apr-15 14:58N 46°30' W 001°47'0 0.0
2017-Apr-15 13:58N 46°30' W 001°47'0 0.6
2017-Apr-15 13:30N 46°30' W 001°48'3 6.7
2017-Apr-15 13:01N 46°27' W 001°48'4 7.3
2017-Apr-15 12:31N 46°23' W 001°49'4 7.2
2017-Apr-15 12:00N 46°19' W 001°49'3 6.8
2017-Apr-15 11:31N 46°16' W 001°50'2 2.9
2017-Apr-15 10:59N 46°15' W 001°50'1 2.0
2017-Apr-15 10:28N 46°15' W 001°49'1 3.1
2017-Apr-15 10:00N 46°14' W 001°51'1 2.5
2017-Apr-15 09:30N 46°15' W 001°49'0 0.7
2017-Apr-15 09:00N 46°15' W 001°48'1 1.4
2017-Apr-15 08:28N 46°14' W 001°49'1 1.4
2017-Apr-15 08:00N 46°14' W 001°48'2 4.7
2017-Apr-15 07:30N 46°16' W 001°50'1 1.5
2017-Apr-15 07:00N 46°15' W 001°49'1 1.4
2017-Apr-15 06:30N 46°16' W 001°50'1 1.4
2017-Apr-15 06:00N 46°15' W 001°49'1 1.9
2017-Apr-15 05:31N 46°16' W 001°50'2 3.3
2017-Apr-15 04:59N 46°15' W 001°52'0 0.4
2017-Apr-15 04:29N 46°15' W 001°52'0 0.5
2017-Apr-15 04:00N 46°15' W 001°52'4 7.4
2017-Apr-15 03:30N 46°19' W 001°51'4 7.8
2017-Apr-15 03:00N 46°23' W 001°49'4 7.8
2017-Apr-15 02:30N 46°27' W 001°48'3 6.7
2017-Apr-15 02:00N 46°30' W 001°48'0 0.7
2017-Apr-15 01:30N 46°30' W 001°47'0 0.0
2017-Apr-15 01:00N 46°30' W 001°47'0 0.0
2017-Apr-15 00:30N 46°30' W 001°47'0 0.0
2017-Apr-15 00:00N 46°30' W 001°47'0 0.0
2017-Apr-14 23:30N 46°30' W 001°47'0 0.0
2017-Apr-14 23:00N 46°30' W 001°47'0 0.0
2017-Apr-14 22:30N 46°30' W 001°47'0 0.0
2017-Apr-14 22:00N 46°30' W 001°47'0 0.0
2017-Apr-14 21:30N 46°30' W 001°47'0 0.0
2017-Apr-14 20:54N 46°30' W 001°47'0 0.0
2017-Apr-14 20:30N 46°30' W 001°47'0 0.0
2017-Apr-14 20:00N 46°30' W 001°47'0 0.0
2017-Apr-14 19:30N 46°30' W 001°47'0 0.0
2017-Apr-14 19:00N 46°30' W 001°47'0 0.0
2017-Apr-14 18:30N 46°30' W 001°47'0 0.0
2017-Apr-14 18:00N 46°30' W 001°47'0 0.0
2017-Apr-14 17:30N 46°30' W 001°47'0 0.0
2017-Apr-14 17:00N 46°30' W 001°47'0 0.0
2017-Apr-14 16:30N 46°30' W 001°47'0 0.0
2017-Apr-14 16:00N 46°30' W 001°47'0 0.0
2017-Apr-14 15:30N 46°30' W 001°47'0 0.0
2017-Apr-14 15:00N 46°30' W 001°47'0 0.0
2017-Apr-14 14:00N 46°30' W 001°47'0 0.0
2017-Apr-14 13:30N 46°30' W 001°47'2 3.3
2017-Apr-14 13:00N 46°28' W 001°47'4 8.0
2017-Apr-14 12:30N 46°24' W 001°48'4 7.9
2017-Apr-14 12:00N 46°20' W 001°49'4 7.7
2017-Apr-14 11:30N 46°17' W 001°50'2 4.5
2017-Apr-14 11:00N 46°15' W 001°49'1 2.3
2017-Apr-14 10:29N 46°14' W 001°51'1 2.7
2017-Apr-14 10:00N 46°15' W 001°49'0 1.0
2017-Apr-14 09:30N 46°14' W 001°49'0 0.2
2017-Apr-14 08:56N 46°14' W 001°49'1 1.8
2017-Apr-14 08:30N 46°14' W 001°50'1 1.3
2017-Apr-14 07:56N 46°15' W 001°51'1 2.0
2017-Apr-14 07:28N 46°15' W 001°52'1 1.9
2017-Apr-14 07:00N 46°15' W 001°51'1 1.4
2017-Apr-14 06:30N 46°15' W 001°52'1 2.6
2017-Apr-14 06:00N 46°15' W 001°50'0 0.6
2017-Apr-14 05:30N 46°15' W 001°49'0 0.9
2017-Apr-14 04:58N 46°16' W 001°50'0 0.6
2017-Apr-14 04:28N 46°16' W 001°50'1 2.3
2017-Apr-14 03:56N 46°15' W 001°52'3 6.7
2017-Apr-14 03:30N 46°18' W 001°51'4 8.0
2017-Apr-14 03:00N 46°22' W 001°50'4 8.0
2017-Apr-14 02:30N 46°26' W 001°48'4 7.7
2017-Apr-14 02:00N 46°30' W 001°48'0 0.6
2017-Apr-14 01:15N 46°30' W 001°47'0 0.0
2017-Apr-14 00:57N 46°30' W 001°47'0 0.0
2017-Apr-14 00:27N 46°30' W 001°47'0 0.0
2017-Apr-13 23:57N 46°30' W 001°47'0 0.0
2017-Apr-13 23:24N 46°30' W 001°47'0 0.0
2017-Apr-13 23:00N 46°30' W 001°47'0 0.0
2017-Apr-13 22:27N 46°30' W 001°47'0 0.0
2017-Apr-13 22:00N 46°30' W 001°47'0 0.0
2017-Apr-13 21:24N 46°30' W 001°47'0 0.0
2017-Apr-13 20:57N 46°30' W 001°47'0 0.0
2017-Apr-13 20:30N 46°30' W 001°47'0 0.0
2017-Apr-13 19:51N 46°30' W 001°47'0 0.0
2017-Apr-13 19:30N 46°30' W 001°47'0 0.0
2017-Apr-13 19:00N 46°30' W 001°47'0 0.0
2017-Apr-13 18:27N 46°30' W 001°47'0 0.0
2017-Apr-13 17:57N 46°30' W 001°47'0 0.0
2017-Apr-13 17:12N 46°30' W 001°47'0 0.0
2017-Apr-13 17:00N 46°30' W 001°47'0 0.0
2017-Apr-13 16:24N 46°30' W 001°47'0 0.0
2017-Apr-13 16:00N 46°30' W 001°47'0 0.0
2017-Apr-13 15:30N 46°30' W 001°47'2 3.5
2017-Apr-13 15:00N 46°28' W 001°47'4 7.7
2017-Apr-13 14:30N 46°24' W 001°48'8 8.0
2017-Apr-13 13:30N 46°16' W 001°50'2 4.2
2017-Apr-13 13:00N 46°15' W 001°48'2 3.1
2017-Apr-13 12:30N 46°15' W 001°50'1 1.2
2017-Apr-13 12:00N 46°15' W 001°51'1 2.3
2017-Apr-13 11:30N 46°16' W 001°52'4 8.0
2017-Apr-13 11:00N 46°20' W 001°54'4 8.1
2017-Apr-13 10:30N 46°23' W 001°55'4 8.0
2017-Apr-13 10:00N 46°27' W 001°56'3 5.3
2017-Apr-13 09:30N 46°30' W 001°57'0 0.3
2017-Apr-13 09:00N 46°30' W 001°57'0 0.4
2017-Apr-13 08:30N 46°30' W 001°57'0 0.8
2017-Apr-13 08:00N 46°30' W 001°56'0 0.8
2017-Apr-13 07:31N 46°30' W 001°56'3 6.2
2017-Apr-13 07:00N 46°33' W 001°58'1 2.5
2017-Apr-13 06:31N 46°34' W 001°59'1 1.3
2017-Apr-13 06:00N 46°34' W 001°58'1 1.4
2017-Apr-13 05:27N 46°33' W 001°58'0 0.7
2017-Apr-13 05:00N 46°33' W 001°57'1 2.1
2017-Apr-13 04:28N 46°34' W 001°59'0 0.8
2017-Apr-13 04:00N 46°34' W 001°58'1 2.4
2017-Apr-13 03:30N 46°34' W 001°57'2 5.0
2017-Apr-13 03:00N 46°32' W 001°55'4 7.6
2017-Apr-13 02:30N 46°29' W 001°51'3 5.4
2017-Apr-13 02:00N 46°29' W 001°47'1 0.9
2017-Apr-13 01:23N 46°30' W 001°47'0 0.0
2017-Apr-13 00:59N 46°30' W 001°47'0 0.0
2017-Apr-13 00:29N 46°30' W 001°47'0 0.0
2017-Apr-12 23:59N 46°30' W 001°47'0 0.0
2017-Apr-12 23:29N 46°30' W 001°47'0 0.0
2017-Apr-12 22:59N 46°30' W 001°47'0 0.0
2017-Apr-12 22:29N 46°30' W 001°47'0 0.0
2017-Apr-12 21:59N 46°30' W 001°47'0 0.0
2017-Apr-12 21:08N 46°30' W 001°47'0 0.0
2017-Apr-12 20:59N 46°30' W 001°47'0 0.0
2017-Apr-12 20:29N 46°30' W 001°47'0 0.0
2017-Apr-12 19:56N 46°30' W 001°47'0 0.0
2017-Apr-12 19:29N 46°30' W 001°47'0 0.0
2017-Apr-12 18:56N 46°30' W 001°47'0 0.0
2017-Apr-12 18:26N 46°30' W 001°47'0 0.0
2017-Apr-12 17:44N 46°30' W 001°47'0 0.0
2017-Apr-12 17:26N 46°30' W 001°47'0 0.0
2017-Apr-12 16:56N 46°30' W 001°47'0 0.0
2017-Apr-12 16:23N 46°30' W 001°47'0 0.0
2017-Apr-12 15:59N 46°30' W 001°47'0 0.0
2017-Apr-12 15:29N 46°30' W 001°47'0 0.0
2017-Apr-12 14:59N 46°30' W 001°47'0 0.0
2017-Apr-12 14:29N 46°30' W 001°47'0 0.0
2017-Apr-12 13:29N 46°30' W 001°47'0 0.0
2017-Apr-12 12:59N 46°30' W 001°47'0 0.0
2017-Apr-12 12:30N 46°30' W 001°47'2 4.0
2017-Apr-12 12:00N 46°29' W 001°49'4 7.6
2017-Apr-12 11:30N 46°31' W 001°54'4 7.5
2017-Apr-12 11:00N 46°34' W 001°57'0 0.8
2017-Apr-12 10:30N 46°33' W 001°57'1 2.2
2017-Apr-12 10:00N 46°33' W 001°59'1 1.4
2017-Apr-12 09:30N 46°33' W 001°59'1 2.8
2017-Apr-12 09:00N 46°32' W 001°58'1 2.9
2017-Apr-12 08:30N 46°34' W 001°59'1 1.2
2017-Apr-12 07:56N 46°33' W 001°58'1 2.3
2017-Apr-12 07:30N 46°34' W 001°59'1 1.5
2017-Apr-12 06:57N 46°33' W 001°60'1 2.3
2017-Apr-12 06:30N 46°32' W 001°59'2 4.9
2017-Apr-12 06:00N 46°30' W 001°57'0 0.3
2017-Apr-12 05:30N 46°30' W 001°58'0 0.2
2017-Apr-12 05:00N 46°30' W 001°57'1 1.5
2017-Apr-12 04:30N 46°29' W 001°57'0 0.2
2017-Apr-12 03:59N 46°30' W 001°57'0 0.3
2017-Apr-12 03:29N 46°30' W 001°57'0 0.4
2017-Apr-12 03:00N 46°30' W 001°56'3 6.8
2017-Apr-12 02:30N 46°29' W 001°52'3 5.9
2017-Apr-12 02:00N 46°29' W 001°47'1 1.4
2017-Apr-12 01:30N 46°30' W 001°47'0 0.0
2017-Apr-12 01:00N 46°30' W 001°47'0 0.0
2017-Apr-12 00:30N 46°30' W 001°47'0 0.0
2017-Apr-12 00:00N 46°30' W 001°47'0 0.0
2017-Apr-11 23:30N 46°30' W 001°47'0 0.0
2017-Apr-11 23:00N 46°30' W 001°47'0 0.0
2017-Apr-11 22:30N 46°30' W 001°47'0 0.0
2017-Apr-11 22:00N 46°30' W 001°47'0 0.0
2017-Apr-11 21:30N 46°30' W 001°47'0 0.0
2017-Apr-11 21:00N 46°30' W 001°47'0 0.0
2017-Apr-11 20:30N 46°30' W 001°47'0 0.0
2017-Apr-11 20:00N 46°30' W 001°47'0 0.0
2017-Apr-11 19:30N 46°30' W 001°47'0 0.0
2017-Apr-11 19:00N 46°30' W 001°47'0 0.0
2017-Apr-11 18:29N 46°30' W 001°47'0 0.0
2017-Apr-11 17:59N 46°30' W 001°47'0 0.0
2017-Apr-11 17:30N 46°30' W 001°47'0 0.0
2017-Apr-11 17:00N 46°30' W 001°47'0 0.0
2017-Apr-11 16:30N 46°30' W 001°47'0 0.0
2017-Apr-11 16:00N 46°30' W 001°47'0 0.0
2017-Apr-11 15:30N 46°30' W 001°47'0 0.0
2017-Apr-11 15:00N 46°30' W 001°47'0 0.0
2017-Apr-11 14:30N 46°30' W 001°47'0 0.0
2017-Apr-11 13:31N 46°30' W 001°47'2 4.3
2017-Apr-11 13:00N 46°29' W 001°50'4 8.3
2017-Apr-11 12:30N 46°31' W 001°55'4 8.3
2017-Apr-11 12:00N 46°33' W 001°60'1 1.4
2017-Apr-11 11:30N 46°33' W 001°59'1 1.7
2017-Apr-11 11:00N 46°33' W 001°58'1 2.6
2017-Apr-11 10:30N 46°33' W 001°59'1 2.1
2017-Apr-11 10:00N 46°32' W 001°59'1 3.0
2017-Apr-11 09:30N 46°34' W 001°59'1 2.0
2017-Apr-11 09:00N 46°33' W 001°59'1 1.6
2017-Apr-11 08:30N 46°33' W 001°60'0 0.5
2017-Apr-11 07:59N 46°33' W 001°60'1 2.1
2017-Apr-11 07:30N 46°32' W 001°59'1 2.6
2017-Apr-11 06:58N 46°31' W 001°59'1 2.1
2017-Apr-11 06:31N 46°30' W 001°59'1 1.9
2017-Apr-11 06:01N 46°30' W 001°58'0 0.4
2017-Apr-11 05:30N 46°30' W 001°57'0 0.3
2017-Apr-11 05:00N 46°30' W 001°57'1 2.1
2017-Apr-11 04:30N 46°29' W 001°56'0 0.2
2017-Apr-11 04:00N 46°29' W 001°56'0 0.5
2017-Apr-11 03:30N 46°30' W 001°56'0 0.4
2017-Apr-11 03:00N 46°30' W 001°56'4 7.6
2017-Apr-11 02:30N 46°29' W 001°51'2 4.7
2017-Apr-11 02:00N 46°30' W 001°48'0 0.8
2017-Apr-11 01:28N 46°30' W 001°47'0 0.0
2017-Apr-11 00:58N 46°30' W 001°47'0 0.0
2017-Apr-11 00:28N 46°30' W 001°47'0 0.0
2017-Apr-10 23:58N 46°30' W 001°47'0 0.0
2017-Apr-10 23:28N 46°30' W 001°47'0 0.0
2017-Apr-10 22:58N 46°30' W 001°47'0 0.0
2017-Apr-10 22:28N 46°30' W 001°47'0 0.0
2017-Apr-10 21:58N 46°30' W 001°47'0 0.0
2017-Apr-10 21:28N 46°30' W 001°47'0 0.0
2017-Apr-10 20:58N 46°30' W 001°47'0 0.0
2017-Apr-10 20:28N 46°30' W 001°47'0 0.0
2017-Apr-10 19:58N 46°30' W 001°47'0 0.0
2017-Apr-10 19:28N 46°30' W 001°47'0 0.0
2017-Apr-10 18:58N 46°30' W 001°47'0 0.0
2017-Apr-10 18:28N 46°30' W 001°47'0 0.0
2017-Apr-10 17:58N 46°30' W 001°47'0 0.0
2017-Apr-10 17:28N 46°30' W 001°47'0 0.0
2017-Apr-10 16:58N 46°30' W 001°47'0 0.0
2017-Apr-10 16:28N 46°30' W 001°47'0 0.0
2017-Apr-10 15:58N 46°30' W 001°47'0 0.0
2017-Apr-10 15:28N 46°30' W 001°47'0 0.0
2017-Apr-10 14:58N 46°30' W 001°47'0 0.0
2017-Apr-10 13:58N 46°30' W 001°47'0 0.0
2017-Apr-10 13:29N 46°30' W 001°47'2 3.6
2017-Apr-10 13:01N 46°28' W 001°48'4 8.0
2017-Apr-10 12:31N 46°30' W 001°53'4 8.0
2017-Apr-10 12:01N 46°33' W 001°58'1 2.4
2017-Apr-10 11:31N 46°32' W 001°59'  

Dump ship's entire track history